Time;durP1;ratioP1;P1;durP2;ratioP2;P2;SDS_P1;SDS_P2;PMS_P1;PMS_P2;Temp;Humidity;BMP_temperature;BMP_pressure;BME280_temperature;BME280_humidity;BME280_pressure;Samples;Min_cycle;Max_cycle;Signal;HPM_P1;HPM_P2
2022/03/27 00:00:01;;;;;;;18.02;10.25;;;;;;;14.12;32.34;100693.72;4456530;32;33287;-78
2022/03/27 00:02:30;;;;;;;21.27;10.50;;;;;;;14.38;31.88;100692.06;4469175;32;34824;-80
2022/03/27 00:04:58;;;;;;;19.55;9.93;;;;;;;14.41;31.96;100695.31;4469276;32;34432;-78
2022/03/27 00:07:26;;;;;;;23.08;10.98;;;;;;;14.31;32.26;100691.22;4469362;32;32518;-81
2022/03/27 00:09:59;;;;;;;21.23;10.02;;;;;;;14.47;33.02;100690.84;4456571;32;32916;-82
2022/03/27 00:12:29;;;;;;;23.55;10.80;;;;;;;14.52;32.29;100690.22;4462794;32;33562;-87
2022/03/27 00:14:57;;;;;;;19.67;10.20;;;;;;;14.57;32.09;100695.97;4466923;31;32984;-86
2022/03/27 00:17:24;;;;;;;18.62;9.77;;;;;;;14.58;31.98;100693.00;4437640;31;32489;-87
2022/03/27 00:19:56;;;;;;;18.45;10.00;;;;;;;14.61;31.91;100694.50;4458410;31;32896;-87
2022/03/27 00:22:26;;;;;;;23.10;10.05;;;;;;;14.72;31.73;100691.09;4464279;31;31882;-87
2022/03/27 00:24:54;;;;;;;21.15;9.98;;;;;;;14.73;31.67;100695.56;4463974;31;32963;-86
2022/03/27 00:27:21;;;;;;;23.25;10.20;;;;;;;14.57;32.06;100696.81;4463542;31;33869;-87
2022/03/27 00:29:50;;;;;;;23.17;10.10;;;;;;;14.67;31.84;100686.22;4465150;31;33139;-87
2022/03/27 00:32:22;;;;;;;22.35;10.63;;;;;;;14.50;32.21;100694.06;4476968;31;33758;-87
2022/03/27 00:34:53;;;;;;;21.08;10.27;;;;;;;14.38;32.48;100694.84;4456573;31;32434;-87
2022/03/27 00:37:22;;;;;;;25.48;11.05;;;;;;;14.53;32.23;100692.78;4474961;31;34500;-87
2022/03/27 00:39:49;;;;;;;20.30;10.40;;;;;;;14.39;32.58;100702.91;4474586;31;31978;-87
2022/03/27 00:42:19;;;;;;;20.37;10.55;;;;;;;14.27;32.85;100696.34;4474369;31;32367;-87
2022/03/27 00:44:47;;;;;;;22.73;10.02;;;;;;;14.50;32.32;100695.97;4474018;31;33471;-87
2022/03/27 00:47:15;;;;;;;20.37;10.32;;;;;;;14.55;32.38;100692.56;4474350;31;33460;-87
2022/03/27 00:49:42;;;;;;;23.12;10.48;;;;;;;14.35;32.70;100704.41;4474653;31;33353;-87
2022/03/27 00:52:13;;;;;;;20.62;9.77;;;;;;;14.30;32.88;100708.88;4474514;31;33810;-87
2022/03/27 00:54:41;;;;;;;25.83;11.27;;;;;;;14.16;33.12;100705.22;4474327;31;34683;-87
2022/03/27 00:57:11;;;;;;;18.87;8.93;;;;;;;14.34;32.77;100708.22;4474563;31;34123;-87
2022/03/27 00:59:39;;;;;;;24.12;10.43;;;;;;;14.14;33.22;100712.84;4474367;31;34061;-87
2022/03/27 01:02:06;;;;;;;22.75;10.13;;;;;;;14.15;33.13;100715.41;4474414;31;32250;-87
2022/03/27 01:04:34;;;;;;;18.17;10.05;;;;;;;14.12;33.22;100710.31;4474427;31;34217;-87
2022/03/27 01:07:04;;;;;;;23.20;10.20;;;;;;;13.90;33.62;100705.97;4473607;31;33565;-87
2022/03/27 01:09:38;;;;;;;19.62;9.82;;;;;;;14.07;33.28;100706.47;4474574;31;33766;-86
2022/03/27 01:12:20;;;;;;;20.55;9.77;;;;;;;13.96;33.52;100699.62;4462087;31;33602;-87
2022/03/27 01:14:53;;;;;;;20.25;10.18;;;;;;;13.71;33.99;100701.19;4487130;31;34279;-87
2022/03/27 01:17:24;;;;;;;20.73;10.25;;;;;;;13.75;34.03;100710.78;4474127;31;32563;-86
2022/03/27 01:19:56;;;;;;;30.98;10.48;;;;;;;13.84;33.80;100712.31;4474405;31;34015;-87
2022/03/27 01:22:24;;;;;;;24.27;10.55;;;;;;;13.91;33.71;100718.69;4474030;31;33257;-87
2022/03/27 01:24:52;;;;;;;21.60;10.80;;;;;;;13.83;33.82;100705.06;4474140;31;35474;-86
2022/03/27 01:27:20;;;;;;;18.95;10.38;;;;;;;13.77;33.90;100706.75;4474252;31;33533;-87
2022/03/27 01:29:48;;;;;;;21.70;11.02;;;;;;;13.88;33.78;100705.31;4461408;31;32538;-87
2022/03/27 01:32:17;;;;;;;23.73;10.63;;;;;;;13.84;33.80;100706.78;4473925;31;32409;-86
2022/03/27 01:34:47;;;;;;;23.95;9.63;;;;;;;13.97;33.65;100714.28;4473830;31;33079;-87
2022/03/27 01:37:18;;;;;;;24.23;11.12;;;;;;;13.98;33.53;100708.53;4474789;31;34571;-87
2022/03/27 01:39:45;;;;;;;21.30;10.70;;;;;;;13.92;33.74;100706.59;4468587;31;32018;-87
2022/03/27 01:42:15;;;;;;;22.98;10.63;;;;;;;13.76;34.01;100715.22;4473862;31;33341;-87
2022/03/27 01:44:43;;;;;;;25.08;10.75;;;;;;;13.81;33.91;100715.47;4473725;31;34076;-87
2022/03/27 01:47:11;;;;;;;26.02;10.27;;;;;;;14.09;33.30;100715.37;4473816;31;34051;-87
2022/03/27 01:49:43;;;;;;;26.05;10.52;;;;;;;13.93;33.67;100722.09;4474092;31;32917;-87
2022/03/27 01:52:13;;;;;;;25.50;10.60;;;;;;;14.07;33.34;100725.78;4460769;31;32553;-87
2022/03/27 01:54:41;;;;;;;26.35;10.38;;;;;;;14.04;33.42;100732.56;4474093;31;34201;-87
2022/03/27 01:57:08;;;;;;;25.83;11.38;;;;;;;13.95;33.55;100735.69;4473632;31;32296;-87
2022/03/27 01:59:36;;;;;;;22.35;11.10;;;;;;;13.93;33.57;100738.66;4473904;31;33565;-86
2022/03/27 02:02:04;;;;;;;22.30;10.95;;;;;;;13.96;33.56;100737.41;4460468;31;32330;-87
2022/03/27 02:04:34;;;;;;;25.08;11.15;;;;;;;13.86;33.73;100732.25;4473704;31;34497;-86
2022/03/27 02:07:03;;;;;;;21.42;10.80;;;;;;;13.95;33.58;100727.41;4473348;31;33006;-86
2022/03/27 02:09:31;;;;;;;25.65;10.73;;;;;;;13.83;33.75;100738.19;4473649;31;34109;-87
2022/03/27 02:11:58;;;;;;;21.67;11.07;;;;;;;13.63;34.21;100742.78;4460700;31;32737;-87
2022/03/27 02:14:28;;;;;;;25.15;10.48;;;;;;;13.76;33.82;100737.31;4473322;31;32911;-86
2022/03/27 02:16:58;;;;;;;22.23;11.02;;;;;;;13.67;34.04;100728.34;4474300;31;34826;-87
2022/03/27 02:19:31;;;;;;;20.17;10.63;;;;;;;13.81;33.84;100734.78;4461225;31;32638;-87
2022/03/27 02:21:59;;;;;;;21.70;11.02;;;;;;;13.37;34.69;100730.50;4460347;31;32270;-86
2022/03/27 02:24:27;;;;;;;22.85;10.65;;;;;;;13.54;34.34;100733.81;4473813;31;34584;-86
2022/03/27 02:26:56;;;;;;;23.73;10.90;;;;;;;13.82;33.80;100736.50;4473386;31;33947;-86
2022/03/27 02:29:23;;;;;;;27.50;11.48;;;;;;;13.77;33.85;100731.59;4473188;31;32243;-87
2022/03/27 02:31:51;;;;;;;22.58;11.20;;;;;;;13.61;34.23;100742.13;4473757;31;32876;-86
2022/03/27 02:34:21;;;;;;;24.73;11.10;;;;;;;13.66;34.19;100739.56;4473520;31;33497;-86
2022/03/27 02:36:51;;;;;;;20.08;10.23;;;;;;;13.57;34.53;100738.06;4472551;31;32022;-86
2022/03/27 02:39:20;;;;;;;20.50;11.15;;;;;;;13.46;34.71;100747.75;4460346;31;32216;-87
2022/03/27 02:41:48;;;;;;;21.75;11.07;;;;;;;13.58;34.35;100754.41;4473016;31;34656;-86
2022/03/27 02:44:16;;;;;;;24.08;10.57;;;;;;;13.68;34.31;100757.62;4473176;31;34231;-87
2022/03/27 02:46:45;;;;;;;24.50;10.85;;;;;;;13.62;34.45;100752.09;4473240;31;34107;-87
2022/03/27 02:49:13;;;;;;;26.35;11.52;;;;;;;13.55;34.75;100763.09;4475376;31;33658;-87
2022/03/27 02:51:45;;;;;;;25.62;11.55;;;;;;;13.76;34.29;100762.13;4462378;31;32309;-86
2022/03/27 02:54:16;;;;;;;21.45;11.32;;;;;;;13.66;34.51;100761.66;4475728;31;34429;-86
2022/03/27 02:56:46;;;;;;;29.35;11.65;;;;;;;13.60;34.73;100762.50;4475201;31;32659;-87
2022/03/27 02:59:16;;;;;;;24.77;11.73;;;;;;;13.68;34.45;100765.91;4475141;31;31838;-86
2022/03/27 03:01:44;;;;;;;21.90;11.60;;;;;;;13.69;34.52;100764.84;4475602;31;33840;-87
2022/03/27 03:04:13;;;;;;;21.45;11.18;;;;;;;13.55;34.77;100757.56;4475172;31;33978;-86
2022/03/27 03:06:42;;;;;;;22.30;11.48;;;;;;;13.54;34.89;100761.38;4475652;31;34040;-86
2022/03/27 03:09:10;;;;;;;25.05;11.23;;;;;;;13.51;34.95;100753.53;4475274;31;34082;-86
2022/03/27 03:11:38;;;;;;;26.87;12.25;;;;;;;13.57;34.99;100754.63;4446213;32;117526;-87
2022/03/27 03:14:06;;;;;;;25.73;11.55;;;;;;;13.58;34.94;100762.69;4483961;31;33925;-86
2022/03/27 03:16:53;;;;;;;;;;;;;;;13.49;35.26;100769.41;4466725;31;33323;-86
2022/03/27 03:19:21;;;;;;;28.33;11.90;;;;;;;13.59;35.12;100777.34;4462410;31;31636;-87
2022/03/27 03:21:48;;;;;;;23.92;12.32;;;;;;;13.74;34.82;100778.03;4474850;31;33279;-86
2022/03/27 03:24:16;;;;;;;24.90;11.65;;;;;;;13.85;34.74;100781.09;4475305;31;34469;-86
2022/03/27 03:26:44;;;;;;;26.48;11.65;;;;;;;13.81;34.87;100778.94;4474921;31;33828;-87
2022/03/27 03:29:11;;;;;;;25.25;12.15;;;;;;;13.74;35.18;100794.59;4474908;31;32972;-87
2022/03/27 03:31:39;;;;;;;24.37;11.95;;;;;;;13.69;35.17;100799.87;4474918;31;33530;-86
2022/03/27 03:34:07;;;;;;;26.80;12.80;;;;;;;13.58;35.44;100803.22;4475060;31;32657;-86
2022/03/27 03:36:36;;;;;;;27.20;13.45;;;;;;;13.85;34.96;100802.31;4462237;31;32172;-86
2022/03/27 03:39:04;;;;;;;31.92;13.98;;;;;;;13.95;34.77;100801.94;4475185;31;33633;-86
2022/03/27 03:41:32;;;;;;;25.33;12.63;;;;;;;13.95;34.81;100799.19;4474932;31;32691;-86
2022/03/27 03:44:19;;;;;;;27.15;13.27;;;;;;;13.80;35.14;100807.56;4476788;31;32669;-87
2022/03/27 03:46:50;;;;;;;25.65;12.48;;;;;;;13.92;34.85;100805.09;4475029;31;34746;-86
2022/03/27 03:49:20;;;;;;;26.08;12.15;;;;;;;13.70;35.26;100801.56;4474791;31;33390;-87
2022/03/27 03:51:51;;;;;;;27.92;13.07;;;;;;;13.72;35.29;100813.25;4470352;31;32364;-86
2022/03/27 03:54:19;;;;;;;27.17;12.63;;;;;;;14.06;34.68;100807.75;4474906;31;32635;-86
2022/03/27 03:56:47;;;;;;;23.77;11.68;;;;;;;13.67;35.38;100807.50;4475325;31;33738;-86
2022/03/27 03:59:15;;;;;;;26.87;12.75;;;;;;;13.80;35.18;100821.38;4473719;31;31642;-86
2022/03/27 04:01:57;;;;;;;23.23;11.75;;;;;;;13.96;34.86;100820.19;4464668;31;32325;-86
2022/03/27 04:04:26;;;;;;;23.95;12.45;;;;;;;13.89;34.91;100813.78;4475019;31;34310;-87
2022/03/27 04:06:54;;;;;;;22.95;11.80;;;;;;;13.83;35.09;100829.25;4475075;31;33858;-86
2022/03/27 04:09:22;;;;;;;26.08;12.23;;;;;;;13.69;35.39;100830.22;4459355;32;31910;-86
2022/03/27 04:11:50;;;;;;;27.87;12.15;;;;;;;13.70;35.37;100831.91;4470505;31;33295;-86
2022/03/27 04:14:18;;;;;;;22.10;11.12;;;;;;;13.39;36.11;100835.94;4466773;32;32653;-87
2022/03/27 04:16:49;;;;;;;23.25;12.35;;;;;;;13.56;35.87;100838.41;4482604;31;34201;-87
2022/03/27 04:19:17;;;;;;;25.75;12.43;;;;;;;13.42;36.21;100843.81;4474873;31;31564;-86
2022/03/27 04:21:44;;;;;;;27.33;12.15;;;;;;;13.55;35.89;100843.06;4462018;31;32020;-87
2022/03/27 04:24:14;;;;;;;23.20;11.55;;;;;;;13.63;35.76;100848.44;4474827;31;34252;-87
2022/03/27 04:26:42;;;;;;;23.25;12.52;;;;;;;13.54;36.15;100848.78;4475177;31;34304;-87
2022/03/27 04:29:10;;;;;;;24.65;11.77;;;;;;;13.26;36.84;100857.87;4474498;31;34329;-87
2022/03/27 04:31:40;;;;;;;22.33;11.75;;;;;;;13.29;36.84;100862.16;4474485;31;32142;-87
2022/03/27 04:34:08;;;;;;;24.30;11.82;;;;;;;13.50;36.41;100868.50;4474431;31;34040;-87
2022/03/27 04:36:38;;;;;;;25.88;11.50;;;;;;;13.43;36.65;100878.63;4461650;31;34058;-86
2022/03/27 04:39:05;;;;;;;27.30;12.20;;;;;;;13.50;36.49;100887.81;4474752;31;31899;-87
2022/03/27 04:41:33;;;;;;;25.62;12.60;;;;;;;13.47;36.64;100892.88;4461823;31;32325;-86
2022/03/27 04:44:02;;;;;;;28.95;13.07;;;;;;;13.59;36.47;100895.94;4474573;31;34487;-86
2022/03/27 04:46:30;;;;;;;22.25;12.52;;;;;;;13.55;36.54;100908.41;4474575;31;34748;-87
2022/03/27 04:48:59;;;;;;;26.83;12.55;;;;;;;13.32;37.11;100915.00;4474968;31;33163;-86
2022/03/27 04:51:29;;;;;;;24.20;12.52;;;;;;;13.43;37.07;100914.47;4474459;31;32892;-86
2022/03/27 04:53:57;;;;;;;27.15;13.45;;;;;;;13.44;36.98;100921.69;4474414;31;32958;-87
2022/03/27 04:56:25;;;;;;;26.05;12.77;;;;;;;13.31;37.49;100918.81;4461559;31;33834;-86
2022/03/27 04:58:55;;;;;;;30.55;13.10;;;;;;;13.28;37.56;100923.84;4470754;31;32284;-87
2022/03/27 05:01:23;;;;;;;24.15;12.82;;;;;;;13.36;37.44;100930.09;4474580;31;33823;-79
2022/03/27 05:03:51;;;;;;;25.65;12.60;;;;;;;13.44;37.32;100929.09;4474769;31;35072;-81
2022/03/27 05:06:19;;;;;;;24.42;11.73;;;;;;;13.45;37.43;100936.34;4474515;31;34043;-82
2022/03/27 05:08:46;;;;;;;27.55;12.65;;;;;;;13.45;37.55;100933.56;4474317;31;31829;-79
2022/03/27 05:11:14;;;;;;;28.48;11.48;;;;;;;13.26;38.91;100924.03;4473823;31;32303;-80
2022/03/27 05:13:42;;;;;;;22.37;11.77;;;;;;;13.52;38.14;100940.88;4487268;31;34497;-79
2022/03/27 05:16:09;;;;;;;21.90;11.50;;;;;;;13.50;38.26;100951.25;4487055;31;33877;-80
2022/03/27 05:18:37;;;;;;;23.38;12.05;;;;;;;13.46;38.52;100949.06;4474173;31;31930;-80
2022/03/27 05:21:04;;;;;;;32.25;12.60;;;;;;;13.46;38.51;100960.09;4474095;31;32336;-80
2022/03/27 05:23:35;;;;;;;22.85;12.23;;;;;;;13.37;38.50;100956.63;4474295;31;34504;-80
2022/03/27 05:26:05;;;;;;;24.75;12.20;;;;;;;13.54;38.11;100948.09;4474142;31;33970;-80
2022/03/27 05:28:32;;;;;;;20.92;10.98;;;;;;;13.51;38.35;100950.19;4474175;31;31930;-79
2022/03/27 05:31:08;;;;;;;25.98;13.23;;;;;;;13.63;38.26;100952.41;4474505;31;33679;-80
2022/03/27 05:33:39;;;;;;;29.73;14.50;;;;;;;13.56;39.20;100957.03;4487691;31;35143;-80
2022/03/27 05:36:08;;;;;;;22.85;11.93;;;;;;;13.71;38.68;100955.87;4474439;31;34321;-80
2022/03/27 05:38:39;;;;;;;27.08;12.10;;;;;;;13.66;37.96;100963.88;4487230;31;33256;-80
2022/03/27 05:41:08;;;;;;;25.55;10.95;;;;;;;13.62;38.53;100965.34;4487207;31;34477;-79
2022/03/27 05:43:35;;;;;;;22.67;10.32;;;;;;;13.71;38.79;100975.19;4474149;31;34355;-79
2022/03/27 05:46:03;;;;;;;23.98;10.05;;;;;;;13.60;38.32;100977.62;4460916;31;32409;-79
2022/03/27 05:48:35;;;;;;;18.50;9.85;;;;;;;13.72;38.18;100978.78;4487543;31;34032;-79
2022/03/27 05:51:03;;;;;;;20.20;10.35;;;;;;;13.70;38.33;100983.66;4473812;31;33396;-80
2022/03/27 05:53:33;;;;;;;21.17;10.00;;;;;;;13.90;37.79;100981.94;4473707;31;32820;-80
2022/03/27 05:56:02;;;;;;;14.60;7.78;;;;;;;14.07;37.73;100986.13;4474133;31;33894;-80
2022/03/27 05:58:29;;;;;;;16.10;9.02;;;;;;;14.03;38.21;100992.22;4487048;31;34051;-80
2022/03/27 06:00:57;;;;;;;16.42;8.20;;;;;;;14.02;38.07;100988.63;4474088;31;33713;-79
2022/03/27 06:03:25;;;;;;;19.02;9.38;;;;;;;14.15;37.79;101002.53;4474191;31;33005;-80
2022/03/27 06:05:53;;;;;;;19.20;8.10;;;;;;;14.42;37.69;101005.50;4473561;31;32228;-80
2022/03/27 06:08:21;;;;;;;19.52;9.48;;;;;;;14.39;37.06;101006.72;4473908;31;32101;-79
2022/03/27 06:10:51;;;;;;;17.25;9.65;;;;;;;14.78;36.39;101014.44;4474095;31;32286;-80
2022/03/27 06:13:19;;;;;;;16.10;8.05;;;;;;;14.94;36.41;101017.94;4460693;31;32906;-80
2022/03/27 06:15:51;;;;;;;19.25;10.63;;;;;;;14.98;36.38;101024.72;4473632;31;34643;-78
2022/03/27 06:18:18;;;;;;;27.50;14.98;;;;;;;15.06;36.17;101030.94;4473825;31;33427;-81
2022/03/27 06:20:46;;;;;;;19.05;10.48;;;;;;;15.15;36.71;101029.72;4473312;31;33665;-82
2022/03/27 06:23:14;;;;;;;14.27;7.75;;;;;;;15.02;36.37;101039.84;4474849;31;35364;-81
2022/03/27 06:25:42;;;;;;;13.13;7.65;;;;;;;15.08;36.86;101027.97;4475505;31;32532;-82
2022/03/27 06:28:09;;;;;;;13.80;8.48;;;;;;;15.15;36.33;101031.62;4473890;31;33272;-81
2022/03/27 06:30:37;;;;;;;14.68;7.25;;;;;;;15.40;35.67;101032.78;4462286;31;32401;-82
2022/03/27 06:33:07;;;;;;;17.15;8.15;;;;;;;14.98;36.17;101044.94;4488003;31;34390;-81
2022/03/27 06:35:37;;;;;;;14.98;9.00;;;;;;;15.08;35.99;101041.78;4475662;31;32577;-82
2022/03/27 06:38:05;;;;;;;13.68;7.70;;;;;;;14.81;36.47;101040.81;4475877;31;33581;-81
2022/03/27 06:40:32;;;;;;;17.92;10.48;;;;;;;15.24;36.40;101033.16;4475366;31;33928;-81
2022/03/27 06:43:00;;;;;;;21.35;12.73;;;;;;;15.21;36.10;101044.63;4462431;31;32907;-81
2022/03/27 06:45:28;;;;;;;36.95;19.73;;;;;;;15.09;36.25;101049.88;4475692;31;34833;-81
2022/03/27 06:47:58;;;;;;;20.60;13.20;;;;;;;15.78;35.15;101049.72;4475164;31;32921;-81
2022/03/27 06:50:26;;;;;;;18.90;9.75;;;;;;;15.56;35.48;101045.41;4475327;31;32768;-80
2022/03/27 06:52:54;;;;;;;19.65;10.00;;;;;;;16.30;34.36;101041.66;4475225;31;33025;-81
2022/03/27 06:55:22;;;;;;;15.73;9.68;;;;;;;15.93;34.63;101052.31;4475544;31;33937;-81
2022/03/27 06:57:50;;;;;;;26.48;18.42;;;;;;;16.41;34.22;101043.78;4475601;31;33067;-81
2022/03/27 07:03:06;;;;;;;16.65;7.78;;;;;;;16.58;34.72;101041.44;4490547;31;35443;-80
2022/03/27 07:05:42;;;;;;;22.87;7.75;;;;;;;17.07;33.72;101047.28;4488546;31;33938;-81
2022/03/27 07:08:14;;;;;;;90.93;25.70;;;;;;;17.24;34.43;101047.66;4475154;31;32730;-80
2022/03/27 07:10:44;;;;;;;14.65;8.18;;;;;;;17.14;39.81;101044.50;4475175;31;34462;-81
2022/03/27 07:13:13;;;;;;;12.15;7.57;;;;;;;18.00;35.56;101055.16;4462374;31;33837;-80
2022/03/27 07:15:41;;;;;;;26.45;18.02;;;;;;;18.21;31.88;101054.78;4475164;31;33605;-77
2022/03/27 07:18:11;;;;;;;124.57;55.17;;;;;;;18.67;31.25;101053.56;4475062;31;31999;-79
2022/03/27 07:20:41;;;;;;;36.15;15.05;;;;;;;19.09;37.05;101052.66;4488114;31;34512;-78
2022/03/27 07:23:10;;;;;;;18.92;9.43;;;;;;;19.81;35.34;101052.81;4462226;31;32916;-77
2022/03/27 07:25:42;;;;;;;11.60;7.32;;;;;;;20.39;33.09;101044.59;4474918;31;32474;-80
2022/03/27 07:28:12;;;;;;;11.93;6.62;;;;;;;20.29;30.41;101046.25;4461831;31;31636;-81
2022/03/27 07:30:42;;;;;;;10.68;6.72;;;;;;;20.05;29.08;101054.59;4475031;31;33813;-81
2022/03/27 07:33:10;;;;;;;12.57;6.93;;;;;;;19.60;29.17;101056.94;4474499;31;32803;-81
2022/03/27 07:35:39;;;;;;;11.40;7.12;;;;;;;19.31;30.07;101061.38;4474481;31;32436;-81
2022/03/27 07:38:07;;;;;;;13.32;7.40;;;;;;;19.30;29.58;101056.06;4500937;31;33360;-81
2022/03/27 07:40:35;;;;;;;11.25;6.85;;;;;;;19.05;30.16;101067.25;4472699;31;32406;-81
2022/03/27 07:43:02;;;;;;;10.32;6.82;;;;;;;19.11;30.47;101068.28;4459910;31;32838;-81
2022/03/27 07:45:32;;;;;;;11.68;6.87;;;;;;;18.87;30.15;101064.47;4460012;31;32534;-82
2022/03/27 07:48:00;;;;;;;14.45;6.85;;;;;;;19.26;30.35;101072.38;4473672;31;33385;-81
2022/03/27 07:50:30;;;;;;;11.73;6.75;;;;;;;19.32;30.06;101068.66;4474061;31;33718;-81
2022/03/27 07:53:00;;;;;;;12.05;6.70;;;;;;;18.56;30.43;101077.37;4460288;31;32930;-81
2022/03/27 07:55:28;;;;;;;13.90;7.93;;;;;;;18.63;30.43;101082.91;4461899;31;33722;-81
2022/03/27 07:57:56;;;;;;;12.70;7.57;;;;;;;18.77;30.70;101084.47;4474981;31;32973;-80
2022/03/27 08:00:29;;;;;;;11.80;6.85;;;;;;;18.70;31.63;101073.41;4475010;31;33793;-81
2022/03/27 08:02:57;;;;;;;11.90;6.90;;;;;;;18.86;30.84;101071.09;4475032;31;34104;-81
2022/03/27 08:05:26;;;;;;;13.25;7.12;;;;;;;19.08;30.62;101080.72;4474726;31;32494;-81
2022/03/27 08:07:53;;;;;;;16.45;7.25;;;;;;;19.15;30.38;101080.63;4475021;31;33165;-80
2022/03/27 08:10:22;;;;;;;12.02;6.80;;;;;;;19.30;30.48;101069.97;4474690;31;32200;-79
2022/03/27 08:12:51;;;;;;;14.18;6.90;;;;;;;19.08;30.80;101075.16;4487884;31;35201;-80
2022/03/27 08:15:21;;;;;;;13.15;6.53;;;;;;;19.13;30.94;101080.03;4485127;32;34607;-81
2022/03/27 08:17:53;;;;;;;12.27;6.90;;;;;;;19.19;31.12;101077.16;4472221;32;34392;-82
2022/03/27 08:20:24;;;;;;;18.70;7.65;;;;;;;19.17;31.14;101076.53;4485101;32;33663;-81
2022/03/27 08:22:53;;;;;;;13.43;7.18;;;;;;;19.37;30.66;101079.09;4471999;32;35226;-80
2022/03/27 08:28:09;;;;;;;11.65;7.43;;;;;;;19.12;31.10;101075.53;4473994;32;32005;-81
2022/03/27 08:30:39;;;;;;;15.60;7.87;;;;;;;19.28;30.70;101063.78;4471909;32;32271;-82
2022/03/27 08:33:06;;;;;;;15.27;8.35;;;;;;;19.23;30.52;101061.69;4459126;32;33796;-81
2022/03/27 08:35:41;;;;;;;13.32;7.53;;;;;;;19.48;30.40;101069.12;4471923;32;34653;-81
2022/03/27 08:38:11;;;;;;;16.08;7.47;;;;;;;19.59;30.38;101071.13;4472463;32;33445;-81
2022/03/27 08:40:41;;;;;;;12.90;7.32;;;;;;;19.97;30.06;101066.06;4472064;32;33289;-81
2022/03/27 08:43:16;;;;;;;15.57;7.95;;;;;;;19.88;30.33;101072.22;4471819;32;34432;-81
2022/03/27 08:45:44;;;;;;;17.05;7.60;;;;;;;20.02;29.81;101054.22;4458346;32;33493;-81
2022/03/27 08:48:12;;;;;;;13.73;7.45;;;;;;;20.20;30.09;101061.63;4471878;32;34074;-81
2022/03/27 08:51:07;;;;;;;12.13;7.45;;;;;;;20.48;29.93;101061.00;4472226;32;34025;-81
2022/03/27 08:53:51;;;;;;;14.73;7.97;;;;;;;20.89;28.67;101068.38;4484784;32;33949;-81
2022/03/27 08:56:18;;;;;;;13.30;8.18;;;;;;;20.69;29.49;101069.62;4471854;32;34153;-81
2022/03/27 08:58:48;;;;;;;12.90;7.93;;;;;;;20.59;28.43;101072.16;4471786;32;31731;-81
2022/03/27 09:01:17;;;;;;;13.70;7.55;;;;;;;20.43;28.88;101072.88;4471417;32;33870;-81
2022/03/27 09:03:45;;;;;;;14.25;8.00;;;;;;;20.84;28.09;101074.69;4465057;32;33235;-81
2022/03/27 09:06:13;;;;;;;14.93;8.23;;;;;;;20.49;29.10;101068.28;4475230;32;33881;-81
2022/03/27 09:08:41;;;;;;;16.77;9.82;;;;;;;20.54;29.31;101074.81;4464714;32;34088;-81
2022/03/27 09:11:15;;;;;;;20.12;8.77;;;;;;;21.30;28.02;101081.37;4477765;32;33796;-81
2022/03/27 09:13:47;;;;;;;15.65;7.97;;;;;;;20.98;28.21;101073.34;4464664;32;34235;-81
2022/03/27 09:16:16;;;;;;;11.27;7.65;;;;;;;21.19;28.67;101073.81;4476798;32;33930;-81
2022/03/27 09:18:52;;;;;;;12.80;7.95;;;;;;;21.44;27.46;101073.56;4468787;32;31916;-80
2022/03/27 09:21:22;;;;;;;16.83;9.75;;;;;;;21.47;26.90;101070.25;4468664;32;33853;-81
2022/03/27 09:23:58;;;;;;;14.07;7.95;;;;;;;21.83;26.37;101078.28;4455938;32;33037;-81
2022/03/27 09:26:26;;;;;;;;;;;;;;;22.06;26.10;101077.34;4469272;32;33611;-81
2022/03/27 09:29:04;;;;;;;11.65;7.18;;;;;;;21.75;26.52;101081.47;4456036;32;32234;-81
2022/03/27 09:31:35;;;;;;;13.30;8.43;;;;;;;21.55;27.11;101072.66;4468804;32;33164;-81
2022/03/27 09:34:03;;;;;;;14.18;7.68;;;;;;;21.58;27.62;101074.94;4461327;32;33029;-80
2022/03/27 09:36:33;;;;;;;15.68;7.68;;;;;;;21.91;26.23;101072.28;4458397;32;32470;-80
2022/03/27 09:39:13;;;;;;;13.23;8.02;;;;;;;21.79;26.53;101070.63;4472707;32;31803;-81
2022/03/27 09:41:47;;;;;;;11.45;7.75;;;;;;;22.38;25.57;101071.19;4471426;32;33782;-82
2022/03/27 09:44:36;;;;;;;15.95;8.07;;;;;;;21.74;27.01;101067.72;4458444;32;33009;-81
2022/03/27 09:47:06;;;;;;;14.02;7.68;;;;;;;21.66;27.16;101063.38;4459174;32;32471;-82
2022/03/27 09:49:34;;;;;;;15.40;8.15;;;;;;;21.95;26.90;101062.28;4451563;32;31999;-81
2022/03/27 09:52:10;;;;;;;12.95;8.05;;;;;;;21.88;26.08;101075.56;4462838;32;33807;-82
2022/03/27 09:54:47;;;;;;;14.75;8.25;;;;;;;21.95;26.85;101065.09;4462970;32;35391;-82
2022/03/27 09:57:19;;;;;;;12.93;7.82;;;;;;;21.72;27.04;101069.94;4464818;32;33440;-81
2022/03/27 09:59:47;;;;;;;16.30;7.97;;;;;;;22.35;25.51;101070.59;4477855;32;33159;-82
2022/03/27 10:02:22;;;;;;;16.02;7.97;;;;;;;22.13;26.43;101063.19;4447255;32;33915;-87
2022/03/27 10:05:02;;;;;;;16.83;8.77;;;;;;;22.16;26.03;101068.28;4456585;32;32998;-81
2022/03/27 10:07:42;;;;;;;13.73;7.93;;;;;;;22.08;25.29;101058.38;4475985;32;33900;-81
2022/03/27 10:10:15;;;;;;;11.60;7.85;;;;;;;22.62;25.81;101058.72;4463103;32;33260;-81
2022/03/27 10:12:46;;;;;;;15.00;7.72;;;;;;;22.81;24.58;101056.50;4463152;32;32412;-81
2022/03/27 10:15:17;;;;;;;16.52;10.73;;;;;;;22.23;25.48;101061.41;4463671;31;34334;-81
2022/03/27 10:17:58;;;;;;;15.25;8.30;;;;;;;22.28;25.46;101052.28;4476691;32;34562;-81
2022/03/27 10:20:28;;;;;;;12.07;7.60;;;;;;;21.84;25.71;101054.81;4464223;32;33878;-82
2022/03/27 10:23:03;;;;;;;17.62;8.20;;;;;;;21.75;26.28;101053.50;4465495;32;33270;-81
2022/03/27 10:25:55;;;;;;;15.60;9.32;;;;;;;22.12;25.33;101048.34;4452535;32;33720;-81
2022/03/27 10:28:24;;;;;;;12.85;7.80;;;;;;;22.64;25.99;101059.31;4463358;32;34437;-81
2022/03/27 10:30:52;;;;;;;13.25;7.78;;;;;;;22.33;25.48;101061.59;4473313;32;31990;-81
2022/03/27 10:33:24;;;;;;;16.02;8.27;;;;;;;22.40;25.98;101055.84;4471494;32;33799;-82
2022/03/27 10:36:27;;;;;;;14.15;7.85;;;;;;;22.77;24.67;101060.91;4477993;32;34282;-80
2022/03/27 10:39:23;;;;;;;22.35;8.20;;;;;;;22.17;25.06;101047.59;4469537;32;33252;-80
2022/03/27 10:42:07;;;;;;;15.40;8.50;;;;;;;22.82;24.86;101052.59;4464530;32;32387;-81
2022/03/27 10:44:58;;;;;;;13.62;7.32;;;;;;;23.07;24.13;101044.59;4476010;32;33826;-81
2022/03/27 10:47:29;;;;;;;13.05;8.25;;;;;;;22.34;24.74;101046.50;4465876;31;32816;-81
2022/03/27 10:50:05;;;;;;;15.13;7.55;;;;;;;21.46;26.39;101051.78;4464042;32;32420;-81
2022/03/27 10:52:44;;;;;;;15.05;8.07;;;;;;;21.66;26.38;101050.25;4461526;32;31777;-81
2022/03/27 10:55:15;;;;;;;15.18;10.30;;;;;;;22.00;25.09;101054.00;4461122;32;33242;-81
2022/03/27 10:57:51;;;;;;;12.65;6.87;;;;;;;22.40;24.71;101052.19;4463688;32;34439;-77
2022/03/27 11:00:38;;;;;;;18.35;10.05;;;;;;;22.99;26.53;101050.63;4467972;32;33621;-81
2022/03/27 11:03:06;;;;;;;12.05;7.72;;;;;;;23.05;24.40;101038.41;4455213;31;33592;-81
2022/03/27 11:05:35;;;;;;;12.93;7.50;;;;;;;22.88;24.82;101030.03;4470108;32;32815;-80
2022/03/27 11:08:31;;;;;;;12.90;7.97;;;;;;;23.08;24.19;101029.47;4471973;32;32873;-78
2022/03/27 11:10:59;;;;;;;13.00;8.27;;;;;;;23.51;24.10;101027.75;4457077;32;33800;-82
2022/03/27 11:13:27;;;;;;;12.73;8.23;;;;;;;23.37;23.54;101034.91;4465506;32;32817;-82
2022/03/27 11:16:05;;;;;;;16.20;8.68;;;;;;;23.44;24.18;101021.50;4465241;31;32388;-81
2022/03/27 11:18:48;;;;;;;14.85;7.57;;;;;;;23.48;23.48;101034.75;4440270;32;34183;-80
2022/03/27 11:21:28;;;;;;;15.98;8.50;;;;;;;23.51;23.16;101025.81;4443728;32;32075;-80
2022/03/27 11:24:02;;;;;;;11.55;7.72;;;;;;;23.41;23.26;101031.28;4456726;32;34236;-79
2022/03/27 11:26:30;;;;;;;15.13;8.32;;;;;;;23.41;23.53;101030.44;4471293;32;33730;-80
2022/03/27 11:29:10;;;;;;;15.13;8.48;;;;;;;23.38;23.62;101023.44;4474119;31;34093;-80
2022/03/27 11:31:40;;;;;;;14.60;8.35;;;;;;;23.37;23.51;101024.53;4474946;31;32501;-80
2022/03/27 11:34:08;;;;;;;12.35;7.72;;;;;;;23.16;24.24;101009.44;4475461;31;32744;-80